Impacts TAF Board
For situational awareness. Not to be used for flight planning purposes.
IDs:

KDCA - Washington/National, VA, US

Issued at 0520 UTC 23 Feb 2019
Updated at 0655 UTC 23 Feb 2019
Potential Impact None Slight Moderate High
Time0652Z 23/07Z 23/08Z 23/09Z 23/10Z 23/11Z 23/12Z 23/13Z 23/14Z 23/15Z 23/16Z 23/17Z 23/18Z 23/19Z>>
Type OBS PRVL PRVL PRVL PRVL PRVL PRVL PRVL PRVL PRVL PRVL PRVL PRVL PRVL
VIS 10 >6 >6 >6 >6 >6 >6 >6 >6 >6 >6 >6 >6 >6
CIG 160 200 200 200 200 200 200 200 200 80 80 80 80 80
Cover OVC OVC OVC OVC OVC OVC OVC OVC OVC OVC OVC OVC OVC OVC
FltCat VFR VFR VFR VFR VFR VFR VFR VFR VFR VFR VFR VFR VFR VFR
WX -- -- -- -- -- -- -- -- -- -RA -RA -RA -RA -RA
WDir VRB VRB VRB VRB VRB VRB VRB VRB VRB 90 90 90 90 90
WSpd 0 0 0 0 0 0 0 0 0 4 4 4 4 4
WGst -- -- -- -- -- -- -- -- -- -- -- -- -- --
Raw TAF
KDCA 230520Z 2306/2412 00000KT P6SM OVC200
  FM231500 09004KT P6SM -RA OVC080
  FM232000 12004KT 5SM -RA OVC030
  FM232200 11005KT 5SM -RA OVC015
  FM240000 09005KT 4SM -RA OVC008
  FM240300 10004KT 3SM RA OVC008


Raw METAR
KDCA 230652Z 00000KT 10SM OVC160 06/00 A3047 RMK AO2 SLP316 T00610000
KDCA 230552Z 00000KT 10SM OVC160 06/M01 A3046 RMK AO2 SLP313 T00611006 10083 20061 53003
KDCA 230452Z 07004KT 10SM OVC160 06/00 A3045 RMK AO2 SLP309 T00610000 401110061
KDCA 230352Z 06003KT 10SM OVC160 07/00 A3045 RMK AO2 SLP311 T00670000

METAR Board
Radar Display
Forecast Discussion
For situational awareness. Not to be used for flight planning purposes.